Terminal Aerodrome Forecast
Issued by NWS

Home | Current Version | Previous Version | Text Only | Print | Product List | Glossary On
Versions: 1 2 3 4 5 6 7 8 9 10 11 12 13 14 15 16 17 18 19 20 21 22
000
FTUS42 KTBW 191700
TAFPGD
TAF
KPGD 191727Z 1918/2018 13007KT 6SM SHRA VCTS FEW010 BKN040CB OVC100
      TEMPO 1918/1920 4SM SHRA BKN030
     FM200100 05006KT 6SM SHRA BR SCT020 BKN035 OVC100
     FM200600 11004KT P6SM VCSH FEW020 BKN040 OVC070
     FM201400 25006KT P6SM VCSH BKN040 OVC100=

USA.gov is the U.S. government's official web portal to all federal, state and local government web resources and services.